Aviation Digital Data Service (ADDS)

Output produced by METARs form (0011 UTC 23 September 2017)
found at http://aviationweather.gov/adds/metars/
 
KILG 222330Z 2300/2324 30005KT P6SM SCT060 
     FM230400 36005KT P6SM FEW060